Time;durP1;ratioP1;P1;durP2;ratioP2;P2;SDS_P1;SDS_P2;PMS_P1;PMS_P2;Temp;Humidity;BMP_temperature;BMP_pressure;BME280_temperature;BME280_humidity;BME280_pressure;Samples;Min_cycle;Max_cycle;Signal;HPM_P1;HPM_P2
2024/02/27 00:00:18;;;;;;;1.70;1.60;;;15.90;59.40;;;;;;5111830;28;20180;-66
2024/02/27 00:02:43;;;;;;;1.55;1.48;;;15.90;59.40;;;;;;5111561;28;20177;-65
2024/02/27 00:05:09;;;;;;;1.77;1.67;;;15.80;59.40;;;;;;5111886;28;20189;-65
2024/02/27 00:07:34;;;;;;;1.98;1.83;;;15.80;59.40;;;;;;5112050;28;20201;-66
2024/02/27 00:10:01;;;;;;;1.60;1.50;;;15.80;59.40;;;;;;5111455;28;20169;-67
2024/02/27 00:12:26;;;;;;;1.77;1.67;;;15.80;59.30;;;;;;5112059;28;20183;-67
2024/02/27 00:14:53;;;;;;;1.73;1.63;;;15.80;59.30;;;;;;5112071;28;20173;-67
2024/02/27 00:17:20;;;;;;;1.70;1.60;;;15.90;59.40;;;;;;5111288;28;20253;-66
2024/02/27 00:19:46;;;;;;;1.92;1.83;;;15.80;59.40;;;;;;5112148;28;20173;-66
2024/02/27 00:22:11;;;;;;;1.50;1.40;;;15.80;59.30;;;;;;5111688;28;20219;-67
2024/02/27 00:24:37;;;;;;;1.80;1.70;;;15.80;59.30;;;;;;5111306;28;20169;-67
2024/02/27 00:27:02;;;;;;;2.00;1.90;;;15.70;59.30;;;;;;5112132;28;20181;-65
2024/02/27 00:29:28;;;;;;;1.80;1.70;;;15.80;59.40;;;;;;5111697;28;20213;-66
2024/02/27 00:31:53;;;;;;;1.70;1.60;;;15.70;59.30;;;;;;5111099;28;20177;-65
2024/02/27 00:34:19;;;;;;;2.97;1.83;;;15.80;59.30;;;;;;5111739;28;20194;-66
2024/02/27 00:36:44;;;;;;;2.15;1.95;;;15.70;59.40;;;;;;5111966;28;20192;-67
2024/02/27 00:39:10;;;;;;;1.60;1.50;;;15.70;59.30;;;;;;5110803;28;20177;-67
2024/02/27 00:41:40;;;;;;;1.77;1.65;;;15.80;59.30;;;;;;5112000;28;20260;-67
2024/02/27 00:44:07;;;;;;;1.95;1.83;;;15.70;59.30;;;;;;5111523;28;20185;-66
2024/02/27 00:46:38;;;;;;;1.88;1.75;;;15.70;59.30;;;;;;5113370;28;20173;-66
2024/02/27 00:49:04;;;;;;;1.85;1.75;;;15.70;59.30;;;;;;5115557;28;20220;-66
2024/02/27 00:51:29;;;;;;;1.70;1.60;;;15.70;59.30;;;;;;5114263;28;20649;-66
2024/02/27 00:53:55;;;;;;;1.83;1.73;;;15.70;59.30;;;;;;5115295;28;20175;-67
2024/02/27 00:56:20;;;;;;;2.30;1.95;;;15.70;59.30;;;;;;5114875;28;20252;-67
2024/02/27 00:58:46;;;;;;;1.95;1.73;;;15.60;59.30;;;;;;5114699;28;20173;-67
2024/02/27 01:01:11;;;;;;;2.03;1.83;;;15.70;59.30;;;;;;5114957;28;20234;-66
2024/02/27 01:03:37;;;;;;;2.10;1.95;;;15.70;59.40;;;;;;5115209;28;20180;-66
2024/02/27 01:06:04;;;;;;;1.80;1.70;;;15.60;59.30;;;;;;5114431;28;20200;-66
2024/02/27 01:08:29;;;;;;;1.63;1.52;;;15.60;59.30;;;;;;5114971;28;20216;-67
2024/02/27 01:10:58;;;;;;;1.80;1.70;;;15.60;59.30;;;;;;5115252;28;20174;-67
2024/02/27 01:13:24;;;;;;;2.10;1.92;;;15.60;59.30;;;;;;5114144;28;20175;-67
2024/02/27 01:15:49;;;;;;;1.85;1.75;;;15.60;59.30;;;;;;5115072;28;20173;-67
2024/02/27 01:18:15;;;;;;;1.80;1.70;;;15.60;59.30;;;;;;5114621;28;20541;-66
2024/02/27 01:20:40;;;;;;;1.70;1.60;;;15.60;59.30;;;;;;5114042;28;20549;-67
2024/02/27 01:23:06;;;;;;;1.85;1.75;;;15.60;59.30;;;;;;5114838;28;20307;-66
2024/02/27 01:25:31;;;;;;;2.13;1.92;;;15.60;59.30;;;;;;5114389;28;20185;-66
2024/02/27 01:27:57;;;;;;;2.08;1.98;;;15.50;59.30;;;;;;5113842;28;20196;-66
2024/02/27 01:30:22;;;;;;;2.08;1.90;;;15.50;59.30;;;;;;5114287;28;20170;-66
2024/02/27 01:32:48;;;;;;;1.83;1.73;;;15.50;59.20;;;;;;5114567;28;20177;-65
2024/02/27 01:35:18;;;;;;;1.92;1.83;;;15.50;59.30;;;;;;5113498;28;20256;-66
2024/02/27 01:37:43;;;;;;;2.00;1.90;;;15.50;59.20;;;;;;5114766;28;20184;-67
2024/02/27 01:40:10;;;;;;;2.60;2.30;;;15.50;59.30;;;;;;5113744;28;20255;-66
2024/02/27 01:42:36;;;;;;;2.05;1.95;;;15.50;59.20;;;;;;5114640;27;20180;-67
2024/02/27 01:45:02;;;;;;;2.03;1.92;;;15.50;59.30;;;;;;5114398;28;20264;-66
2024/02/27 01:47:28;;;;;;;2.35;2.15;;;15.50;59.30;;;;;;5113410;28;20287;-66
2024/02/27 01:49:53;;;;;;;2.10;2.00;;;15.50;59.30;;;;;;5114184;28;20549;-66
2024/02/27 01:52:18;;;;;;;1.83;1.73;;;15.50;59.20;;;;;;5113841;28;20631;-66
2024/02/27 01:54:45;;;;;;;2.10;1.95;;;15.50;59.30;;;;;;5112279;28;20173;-67
2024/02/27 01:57:10;;;;;;;1.98;1.88;;;15.50;59.20;;;;;;5113538;28;20228;-67
2024/02/27 01:59:36;;;;;;;1.90;1.80;;;15.40;59.20;;;;;;5113735;28;20173;-66
2024/02/27 02:02:01;;;;;;;2.13;1.95;;;15.50;59.30;;;;;;5113441;28;20565;-66
2024/02/27 02:04:27;;;;;;;1.98;1.88;;;15.40;59.20;;;;;;5095463;28;20169;-65
2024/02/27 02:06:53;;;;;;;2.08;1.95;;;15.40;59.20;;;;;;5114221;28;20281;-67
2024/02/27 02:09:18;;;;;;;1.77;1.67;;;15.40;59.20;;;;;;5112963;28;20608;-67
2024/02/27 02:11:45;;;;;;;1.88;1.77;;;15.40;59.20;;;;;;5113909;28;20208;-67
2024/02/27 02:14:10;;;;;;;2.20;2.03;;;15.40;59.20;;;;;;5113382;28;20576;-67
2024/02/27 02:16:36;;;;;;;1.92;1.83;;;15.40;59.20;;;;;;5113112;28;20175;-66
2024/02/27 02:19:01;;;;;;;1.90;1.80;;;15.40;59.20;;;;;;5113683;28;20556;-67
2024/02/27 02:21:27;;;;;;;2.00;1.80;;;15.40;59.20;;;;;;5113294;28;20177;-67
2024/02/27 02:23:53;;;;;;;2.15;1.95;;;15.40;59.20;;;;;;5113112;28;20184;-67
2024/02/27 02:26:18;;;;;;;2.25;2.08;;;15.40;59.30;;;;;;5095320;28;20173;-66
2024/02/27 02:28:44;;;;;;;2.25;2.05;;;15.40;59.20;;;;;;5112171;28;20670;-67
2024/02/27 02:31:10;;;;;;;2.03;1.92;;;15.40;59.20;;;;;;5111237;28;20169;-66
2024/02/27 02:33:35;;;;;;;2.00;1.90;;;15.30;59.20;;;;;;5113381;28;20538;-67
2024/02/27 02:36:01;;;;;;;1.80;1.70;;;15.30;59.20;;;;;;5113342;28;20177;-67
2024/02/27 02:38:26;;;;;;;1.77;1.67;;;15.30;59.20;;;;;;5112303;28;20192;-67
2024/02/27 02:40:52;;;;;;;2.17;2.00;;;15.30;59.20;;;;;;5113475;28;20169;-67
2024/02/27 02:43:17;;;;;;;2.00;1.90;;;15.30;59.20;;;;;;5113000;28;20566;-67
2024/02/27 02:45:43;;;;;;;2.00;1.90;;;15.30;59.20;;;;;;5112481;28;20169;-67
2024/02/27 02:48:08;;;;;;;2.10;1.95;;;15.30;59.20;;;;;;5112753;28;20208;-66
2024/02/27 02:50:35;;;;;;;2.08;1.98;;;15.30;59.20;;;;;;5112318;28;20202;-67
2024/02/27 02:53:00;;;;;;;2.20;2.00;;;15.30;59.20;;;;;;5113319;28;20175;-67
2024/02/27 02:55:26;;;;;;;1.90;1.80;;;15.30;59.20;;;;;;5112826;28;20169;-67
2024/02/27 02:57:51;;;;;;;2.03;1.88;;;15.20;59.20;;;;;;5112041;28;20220;-67
2024/02/27 03:00:17;;;;;;;2.38;2.17;;;15.30;59.20;;;;;;5112740;28;20177;-67
2024/02/27 03:02:43;;;;;;;2.00;1.90;;;15.20;59.20;;;;;;5112863;28;20185;-67
2024/02/27 03:05:12;;;;;;;2.20;2.05;;;15.20;59.20;;;;;;5112086;28;20181;-66
2024/02/27 03:07:38;;;;;;;2.40;2.20;;;15.20;59.20;;;;;;5112956;28;20197;-67
2024/02/27 03:10:04;;;;;;;2.00;1.90;;;15.20;59.20;;;;;;5112649;28;20643;-68
2024/02/27 03:12:29;;;;;;;2.05;1.80;;;15.20;59.30;;;;;;5111902;28;20177;-68
2024/02/27 03:14:55;;;;;;;2.25;2.05;;;15.20;59.20;;;;;;5112682;28;20658;-67
2024/02/27 03:17:21;;;;;;;2.28;2.10;;;15.20;59.20;;;;;;5112314;28;20252;-67
2024/02/27 03:19:46;;;;;;;1.67;1.58;;;15.20;59.20;;;;;;5112277;28;20180;-68
2024/02/27 03:22:13;;;;;;;1.77;1.67;;;15.20;59.20;;;;;;5112516;28;20624;-67
2024/02/27 03:24:43;;;;;;;2.30;2.10;;;15.20;59.90;;;;;;5112550;28;20196;-67
2024/02/27 03:27:09;;;;;;;2.00;1.90;;;15.20;59.20;;;;;;5111618;28;20184;-66
2024/02/27 03:29:34;;;;;;;2.75;2.08;;;15.10;59.20;;;;;;5112582;28;20209;-66
2024/02/27 03:32:00;;;;;;;2.17;1.83;;;15.10;59.20;;;;;;5112585;28;20169;-66
2024/02/27 03:34:26;;;;;;;1.70;1.60;;;15.10;59.20;;;;;;5111860;28;20169;-67
2024/02/27 03:36:52;;;;;;;2.05;1.88;;;15.10;59.20;;;;;;5112451;28;20714;-67
2024/02/27 03:39:17;;;;;;;1.85;1.75;;;15.10;59.20;;;;;;5112727;28;20180;-67
2024/02/27 03:41:43;;;;;;;2.28;2.08;;;15.10;59.20;;;;;;5111765;28;20575;-67
2024/02/27 03:44:08;;;;;;;2.30;2.10;;;15.10;59.30;;;;;;5112326;28;20176;-67
2024/02/27 03:46:34;;;;;;;2.10;2.00;;;15.10;59.20;;;;;;5112475;28;20173;-67
2024/02/27 03:48:59;;;;;;;1.92;1.83;;;15.10;59.20;;;;;;5111598;28;20738;-67
2024/02/27 03:51:25;;;;;;;1.90;1.80;;;15.10;59.30;;;;;;5112312;28;20353;-67
2024/02/27 03:53:51;;;;;;;2.08;1.98;;;15.10;59.30;;;;;;5111742;28;20651;-67
2024/02/27 03:56:16;;;;;;;2.20;2.00;;;15.10;59.30;;;;;;5112111;28;20302;-67
2024/02/27 03:58:42;;;;;;;1.65;1.55;;;15.10;59.30;;;;;;5112102;28;20264;-67
2024/02/27 04:01:07;;;;;;;1.85;1.73;;;15.00;59.20;;;;;;5111495;28;20180;-66
2024/02/27 04:03:33;;;;;;;2.00;1.88;;;15.10;59.30;;;;;;5112053;28;20266;-67
2024/02/27 04:05:58;;;;;;;1.80;1.70;;;15.00;59.20;;;;;;5112155;28;20188;-66
2024/02/27 04:08:24;;;;;;;1.88;1.77;;;15.10;59.30;;;;;;5111240;28;20213;-68
2024/02/27 04:10:49;;;;;;;1.80;1.70;;;15.00;59.20;;;;;;5112156;28;20170;-67
2024/02/27 04:13:15;;;;;;;3.13;2.10;;;15.00;59.20;;;;;;5111797;28;20185;-67
2024/02/27 04:15:40;;;;;;;2.30;2.03;;;15.00;59.20;;;;;;5111335;28;20176;-67
2024/02/27 04:18:06;;;;;;;2.33;1.95;;;15.00;59.20;;;;;;5112053;28;20173;-67
2024/02/27 04:20:32;;;;;;;1.98;1.85;;;15.00;59.20;;;;;;5111929;28;20203;-67
2024/02/27 04:22:57;;;;;;;2.67;1.85;;;15.00;59.20;;;;;;5115194;28;20719;-67
2024/02/27 04:25:23;;;;;;;1.95;1.85;;;15.00;59.20;;;;;;5115667;28;20256;-66
2024/02/27 04:27:48;;;;;;;2.00;1.90;;;15.00;59.30;;;;;;5115804;28;20299;-67
2024/02/27 04:30:14;;;;;;;2.33;2.05;;;15.00;59.30;;;;;;5114850;28;20204;-67
2024/02/27 04:32:40;;;;;;;2.20;2.00;;;14.90;59.20;;;;;;5115715;28;20250;-66
2024/02/27 04:35:06;;;;;;;2.10;1.90;;;15.00;59.30;;;;;;5115714;28;20639;-67
2024/02/27 04:37:31;;;;;;;1.98;1.85;;;15.00;59.30;;;;;;5114841;28;20185;-67
2024/02/27 04:39:58;;;;;;;2.38;2.17;;;14.90;59.20;;;;;;5115645;28;20192;-67
2024/02/27 04:42:23;;;;;;;2.35;1.90;;;15.00;59.30;;;;;;5115326;28;20217;-67
2024/02/27 04:44:49;;;;;;;2.40;2.20;;;15.00;59.30;;;;;;5114649;28;20201;-66
2024/02/27 04:47:14;;;;;;;1.63;1.52;;;14.90;59.20;;;;;;5115140;28;20169;-66
2024/02/27 04:49:40;;;;;;;2.10;1.90;;;14.90;59.20;;;;;;5115070;28;20213;-68
2024/02/27 04:52:05;;;;;;;1.80;1.70;;;14.90;59.30;;;;;;5114847;28;20188;-67
2024/02/27 04:54:31;;;;;;;3.05;2.10;;;14.90;59.30;;;;;;5115100;28;20180;-67
2024/02/27 04:56:56;;;;;;;1.83;1.73;;;14.90;59.30;;;;;;5115160;28;20689;-67
2024/02/27 04:59:22;;;;;;;2.33;2.13;;;14.90;59.30;;;;;;5114094;28;20692;-67
2024/02/27 05:01:48;;;;;;;2.22;2.03;;;14.90;59.30;;;;;;5115052;28;20188;-67
2024/02/27 05:04:13;;;;;;;2.33;2.00;;;14.90;59.30;;;;;;5114386;28;20200;-67
2024/02/27 05:06:39;;;;;;;1.83;1.73;;;14.90;59.30;;;;;;5115270;28;20543;-67
2024/02/27 05:09:05;;;;;;;1.80;1.70;;;14.80;59.30;;;;;;5115050;28;20295;-67
2024/02/27 05:11:31;;;;;;;2.08;1.88;;;14.90;59.40;;;;;;5114163;28;20181;-67
2024/02/27 05:13:56;;;;;;;1.80;1.70;;;14.90;59.30;;;;;;5115079;28;20169;-68
2024/02/27 05:16:22;;;;;;;2.05;1.92;;;14.90;59.30;;;;;;5114388;28;20178;-68
2024/02/27 05:18:47;;;;;;;2.35;1.70;;;14.80;59.30;;;;;;5114425;28;20302;-68
2024/02/27 05:21:13;;;;;;;1.88;1.70;;;14.80;59.30;;;;;;5114737;28;20192;-67
2024/02/27 05:23:38;;;;;;;2.20;2.10;;;14.80;59.30;;;;;;5114815;28;20531;-68
2024/02/27 05:26:04;;;;;;;2.00;1.90;;;14.80;59.30;;;;;;5114218;28;20180;-67
2024/02/27 05:28:29;;;;;;;1.85;1.75;;;14.80;59.30;;;;;;5114162;28;20207;-67
2024/02/27 05:30:55;;;;;;;2.35;2.05;;;14.80;59.30;;;;;;5114472;28;20256;-67
2024/02/27 05:33:21;;;;;;;2.05;1.85;;;14.80;59.30;;;;;;5112275;27;20673;-67
2024/02/27 05:35:46;;;;;;;2.58;2.20;;;14.80;59.30;;;;;;5114933;28;20183;-68
2024/02/27 05:38:12;;;;;;;2.30;2.10;;;14.80;59.30;;;;;;5114360;28;20183;-68
2024/02/27 05:40:37;;;;;;;3.80;2.42;;;14.80;59.40;;;;;;5114018;28;20635;-68
2024/02/27 05:43:03;;;;;;;2.00;1.83;;;14.80;59.30;;;;;;5114667;28;20196;-68
2024/02/27 05:45:29;;;;;;;2.50;2.30;;;14.80;59.30;;;;;;5114066;28;20546;-67
2024/02/27 05:47:54;;;;;;;2.40;2.22;;;14.80;59.30;;;;;;5113531;28;20678;-67
2024/02/27 05:50:23;;;;;;;2.28;2.08;;;14.80;59.40;;;;;;5114170;28;20177;-67
2024/02/27 05:52:48;;;;;;;2.08;1.98;;;14.80;59.30;;;;;;5114172;28;20189;-67
2024/02/27 05:55:14;;;;;;;2.17;1.98;;;14.80;59.20;;;;;;5113084;28;20762;-67
2024/02/27 05:57:39;;;;;;;2.00;1.90;;;14.80;59.20;;;;;;5113883;28;20244;-67
2024/02/27 06:00:07;;;;;;;1.80;1.70;;;14.90;59.10;;;;;;5113585;28;20181;-67
2024/02/27 06:02:33;;;;;;;1.80;1.70;;;14.90;59.10;;;;;;5113205;28;20693;-66
2024/02/27 06:05:02;;;;;;;1.60;1.38;;;15.00;59.00;;;;;;5113839;28;20173;-66
2024/02/27 06:07:27;;;;;;;1.50;1.40;;;15.10;59.00;;;;;;5112896;28;20192;-67
2024/02/27 06:09:54;;;;;;;1.88;1.70;;;15.20;59.00;;;;;;5113837;28;20173;-68
2024/02/27 06:12:19;;;;;;;3.15;1.60;;;15.20;58.80;;;;;;5113523;27;20180;-68
2024/02/27 06:14:45;;;;;;;1.50;1.40;;;15.30;58.80;;;;;;5113098;28;20808;-67
2024/02/27 06:17:10;;;;;;;1.60;1.50;;;15.30;58.80;;;;;;5113688;28;20253;-67
2024/02/27 06:19:43;;;;;;;1.50;1.40;;;15.40;58.60;;;;;;5113610;28;20230;-67
2024/02/27 06:22:10;;;;;;;1.42;1.20;;;15.40;58.50;;;;;;5112715;28;20169;-67
2024/02/27 06:24:36;;;;;;;1.50;1.33;;;15.50;58.50;;;;;;5113611;28;20636;-68
2024/02/27 06:27:02;;;;;;;1.55;1.45;;;15.50;58.50;;;;;;5113604;28;20214;-67
2024/02/27 06:29:28;;;;;;;2.17;1.20;;;15.60;58.40;;;;;;5112634;28;20227;-66
2024/02/27 06:31:54;;;;;;;1.60;1.50;;;15.70;58.30;;;;;;5113720;28;20177;-66
2024/02/27 06:34:19;;;;;;;1.70;1.60;;;15.80;58.20;;;;;;5113024;28;20222;-67
2024/02/27 06:36:45;;;;;;;1.65;1.55;;;15.80;58.10;;;;;;5112738;28;20165;-67
2024/02/27 06:39:10;;;;;;;1.98;1.30;;;15.80;58.00;;;;;;5112975;28;20164;-67
2024/02/27 06:41:36;;;;;;;1.40;1.30;;;15.80;57.90;;;;;;5113230;28;20184;-68
2024/02/27 06:44:01;;;;;;;1.25;1.20;;;15.80;58.00;;;;;;5112433;28;20173;-67
2024/02/27 06:46:27;;;;;;;1.60;1.50;;;15.90;57.90;;;;;;5112947;28;20169;-67
2024/02/27 06:48:52;;;;;;;1.02;1.02;;;15.90;57.90;;;;;;5112989;28;20566;-66
2024/02/27 06:51:18;;;;;;;1.85;1.33;;;16.00;57.90;;;;;;5112196;28;20631;-67
2024/02/27 06:53:44;;;;;;;1.50;1.40;;;16.10;57.80;;;;;;5113098;28;20191;-67
2024/02/27 06:56:09;;;;;;;1.50;1.40;;;16.20;57.60;;;;;;5112604;28;20299;-66
2024/02/27 06:58:35;;;;;;;1.33;1.20;;;16.40;57.40;;;;;;5112079;28;20233;-67
2024/02/27 07:01:01;;;;;;;1.40;1.10;;;16.60;57.20;;;;;;5113187;28;20176;-66
2024/02/27 07:03:27;;;;;;;1.02;1.02;;;16.70;57.00;;;;;;5112732;28;20185;-66
2024/02/27 07:05:53;;;;;;;1.17;1.08;;;16.80;56.80;;;;;;5112183;28;20169;-66
2024/02/27 07:08:19;;;;;;;1.08;1.05;;;16.80;56.70;;;;;;5112487;28;20233;-66
2024/02/27 07:10:44;;;;;;;1.20;1.10;;;16.80;56.50;;;;;;5112023;28;20250;-67
2024/02/27 07:13:10;;;;;;;1.85;1.63;;;16.80;56.60;;;;;;5112684;28;20230;-67
2024/02/27 07:15:36;;;;;;;1.38;1.27;;;16.70;56.80;;;;;;5113002;28;20173;-67
2024/02/27 07:18:02;;;;;;;1.38;1.27;;;16.70;56.80;;;;;;5112217;28;20181;-66
2024/02/27 07:20:29;;;;;;;1.20;1.15;;;16.80;56.90;;;;;;5112467;28;20169;-67
2024/02/27 07:22:55;;;;;;;1.17;1.08;;;16.80;56.90;;;;;;5112551;28;20201;-67
2024/02/27 07:25:20;;;;;;;1.10;1.10;;;16.90;56.80;;;;;;5111480;28;20647;-66
2024/02/27 07:27:48;;;;;;;1.40;1.30;;;17.00;57.30;;;;;;5112766;28;20197;-66
2024/02/27 07:30:14;;;;;;;1.23;1.15;;;17.00;56.70;;;;;;5112126;28;20534;-66
2024/02/27 07:32:40;;;;;;;1.88;1.30;;;17.00;56.70;;;;;;5111806;28;20206;-69
2024/02/27 07:35:07;;;;;;;2.47;1.10;;;17.10;56.60;;;;;;5112511;28;20173;-65
2024/02/27 07:37:33;;;;;;;1.55;1.40;;;17.20;56.60;;;;;;5112230;28;20761;-71
2024/02/27 07:39:59;;;;;;;4.18;1.15;;;17.20;56.60;;;;;;5111764;28;20260;-71
2024/02/27 07:42:24;;;;;;;1.33;1.05;;;17.20;57.40;;;;;;5112258;28;20204;-70
2024/02/27 07:44:50;;;;;;;2.22;1.15;;;17.30;56.80;;;;;;5112578;28;20208;-70
2024/02/27 07:47:18;;;;;;;1.35;1.05;;;17.30;56.90;;;;;;5111590;28;20219;-70
2024/02/27 07:49:45;;;;;;;2.40;1.13;;;17.30;57.00;;;;;;5112169;28;20566;-65
2024/02/27 07:52:10;;;;;;;2.75;1.25;;;17.30;57.00;;;;;;5111981;28;20207;-66
2024/02/27 07:54:36;;;;;;;2.30;1.13;;;17.30;57.10;;;;;;5111615;28;20223;-66
2024/02/27 07:57:02;;;;;;;2.08;1.42;;;17.40;57.20;;;;;;5114629;28;20250;-66
2024/02/27 07:59:27;;;;;;;2.70;1.40;;;17.40;57.20;;;;;;5116359;28;20183;-66
2024/02/27 08:01:53;;;;;;;1.20;1.10;;;17.40;57.30;;;;;;5115820;28;20192;-66
2024/02/27 08:04:19;;;;;;;2.78;1.52;;;17.50;57.30;;;;;;5116128;28;20543;-66
2024/02/27 08:06:44;;;;;;;2.17;1.73;;;17.40;57.20;;;;;;5116257;28;20170;-66
2024/02/27 08:09:10;;;;;;;1.95;1.50;;;17.40;57.20;;;;;;5115177;28;20663;-66
2024/02/27 08:11:35;;;;;;;3.70;1.30;;;17.40;57.10;;;;;;5116451;28;20172;-65
2024/02/27 08:14:02;;;;;;;3.42;1.48;;;17.50;57.10;;;;;;5115649;28;20176;-65
2024/02/27 08:16:28;;;;;;;2.17;1.23;;;17.50;57.00;;;;;;5115826;28;20177;-68
2024/02/27 08:18:53;;;;;;;3.97;1.85;;;17.60;57.00;;;;;;5116101;28;20193;-68
2024/02/27 08:21:19;;;;;;;1.85;1.17;;;17.50;57.10;;;;;;5115015;28;20169;-69
2024/02/27 08:23:44;;;;;;;1.70;1.20;;;17.30;57.30;;;;;;5116018;28;20165;-68
2024/02/27 08:26:10;;;;;;;3.35;1.40;;;17.30;57.30;;;;;;5115897;28;20222;-68
2024/02/27 08:28:36;;;;;;;2.60;1.15;;;17.20;57.30;;;;;;5115340;28;20212;-68
2024/02/27 08:31:03;;;;;;;1.83;1.40;;;17.20;57.30;;;;;;5115974;28;20169;-68
2024/02/27 08:33:29;;;;;;;2.35;1.63;;;17.20;57.50;;;;;;5115631;28;20188;-68
2024/02/27 08:35:55;;;;;;;2.20;1.52;;;17.10;57.60;;;;;;5115121;28;20215;-69
2024/02/27 08:38:21;;;;;;;2.10;1.40;;;17.10;57.60;;;;;;5115469;28;20616;-69
2024/02/27 08:40:47;;;;;;;1.00;1.00;;;17.00;57.60;;;;;;5115882;28;20181;-68
2024/02/27 08:43:14;;;;;;;2.72;1.27;;;17.10;57.70;;;;;;5114641;28;20173;-68
2024/02/27 08:45:39;;;;;;;1.63;1.33;;;17.00;57.60;;;;;;5115723;28;20169;-68
2024/02/27 08:48:05;;;;;;;1.55;1.45;;;17.10;57.70;;;;;;5115498;28;20266;-67
2024/02/27 08:50:31;;;;;;;1.27;1.17;;;17.00;57.70;;;;;;5114598;28;20632;-68
2024/02/27 08:52:56;;;;;;;1.35;1.25;;;17.10;57.60;;;;;;5115473;28;20180;-68
2024/02/27 08:55:25;;;;;;;1.98;1.23;;;17.10;57.70;;;;;;5115314;28;20193;-68
2024/02/27 08:57:51;;;;;;;1.30;1.20;;;17.00;57.60;;;;;;5114654;28;20233;-69
2024/02/27 09:00:17;;;;;;;1.50;1.00;;;17.00;57.60;;;;;;5115172;28;20261;-68
2024/02/27 09:02:43;;;;;;;1.38;0.93;;;17.10;57.60;;;;;;5115349;28;20200;-68
2024/02/27 09:05:08;;;;;;;1.60;1.02;;;17.10;57.60;;;;;;5114282;28;20180;-68
2024/02/27 09:07:37;;;;;;;1.88;1.20;;;17.10;57.70;;;;;;5114820;28;20173;-67
2024/02/27 09:10:04;;;;;;;0.80;0.80;;;17.10;57.70;;;;;;5115397;28;20177;-69
2024/02/27 09:12:30;;;;;;;1.70;1.17;;;17.10;57.60;;;;;;5114223;28;20279;-69
2024/02/27 09:14:55;;;;;;;1.38;0.90;;;17.10;57.60;;;;;;5115115;28;20456;-68
2024/02/27 09:17:21;;;;;;;1.20;1.10;;;17.20;57.50;;;;;;5114114;28;20578;-69
2024/02/27 09:19:47;;;;;;;1.83;1.20;;;17.10;57.60;;;;;;5114979;28;20729;-68
2024/02/27 09:22:12;;;;;;;1.30;1.10;;;17.10;57.50;;;;;;5114519;28;20696;-69
2024/02/27 09:24:38;;;;;;;1.13;1.00;;;17.20;57.50;;;;;;5114208;28;20291;-69
2024/02/27 09:27:03;;;;;;;1.20;1.00;;;17.10;57.50;;;;;;5115046;28;20251;-68
2024/02/27 09:29:29;;;;;;;1.40;1.30;;;17.10;57.50;;;;;;5114531;28;20299;-68
2024/02/27 09:31:54;;;;;;;1.27;1.17;;;17.10;57.60;;;;;;5114181;28;20623;-68
2024/02/27 09:34:20;;;;;;;1.20;1.10;;;17.10;57.60;;;;;;5114292;28;20650;-68
2024/02/27 09:36:46;;;;;;;1.38;1.27;;;17.00;57.60;;;;;;5114581;28;20183;-69
2024/02/27 09:39:11;;;;;;;1.60;1.15;;;16.90;57.60;;;;;;5113686;28;20173;-69
2024/02/27 09:41:58;;;;;;;3.38;1.30;;;16.90;57.70;;;;;;5114729;28;20591;-69
2024/02/27 09:44:24;;;;;;;1.80;1.10;;;16.90;57.80;;;;;;5114359;28;20184;-69
2024/02/27 09:46:50;;;;;;;1.13;1.02;;;16.90;57.90;;;;;;5112580;28;20310;-68
2024/02/27 09:49:15;;;;;;;1.30;1.20;;;16.90;57.80;;;;;;5112654;28;20303;-67
2024/02/27 09:51:41;;;;;;;1.00;1.00;;;16.90;57.80;;;;;;5096266;28;20180;-68
2024/02/27 09:54:07;;;;;;;1.27;1.17;;;16.80;57.80;;;;;;5112561;28;20656;-69
2024/02/27 09:56:33;;;;;;;1.23;1.13;;;16.80;57.80;;;;;;5112544;28;20165;-70
2024/02/27 09:58:59;;;;;;;1.10;1.00;;;16.80;57.90;;;;;;5114205;28;20191;-68
2024/02/27 10:01:24;;;;;;;0.88;0.88;;;16.70;57.90;;;;;;5113118;28;20732;-67
2024/02/27 10:03:50;;;;;;;1.60;1.42;;;16.70;57.90;;;;;;5095915;28;20173;-68
2024/02/27 10:06:19;;;;;;;1.40;1.30;;;16.70;58.00;;;;;;5095834;28;20208;-68
2024/02/27 10:08:47;;;;;;;1.20;1.20;;;16.70;58.00;;;;;;5113193;28;20262;-68
2024/02/27 10:11:12;;;;;;;4.60;1.48;;;16.70;58.00;;;;;;5113518;28;20179;-69
2024/02/27 10:13:38;;;;;;;1.40;1.30;;;16.70;58.00;;;;;;5113183;28;20191;-69
2024/02/27 10:16:04;;;;;;;1.42;1.10;;;16.80;58.00;;;;;;5113802;28;20681;-69
2024/02/27 10:18:30;;;;;;;1.17;1.00;;;16.80;57.90;;;;;;5113168;28;20199;-70
2024/02/27 10:20:56;;;;;;;1.13;1.10;;;16.80;57.90;;;;;;5111769;28;20925;-69
2024/02/27 10:23:21;;;;;;;1.08;1.00;;;16.80;57.90;;;;;;5113121;28;20271;-67
2024/02/27 10:25:48;;;;;;;1.35;1.25;;;16.70;57.90;;;;;;5113530;28;20260;-67
2024/02/27 10:28:13;;;;;;;1.10;1.00;;;16.70;57.90;;;;;;5110591;28;20224;-67
2024/02/27 10:30:39;;;;;;;2.25;1.08;;;16.70;57.90;;;;;;5111946;28;20243;-67
2024/02/27 10:33:07;;;;;;;0.75;0.75;;;16.70;58.00;;;;;;5112711;28;20238;-66
2024/02/27 10:35:33;;;;;;;0.90;0.90;;;16.70;58.10;;;;;;5110728;28;20231;-67
2024/02/27 10:37:59;;;;;;;0.80;0.80;;;16.70;58.10;;;;;;5112919;28;20177;-68
2024/02/27 10:40:28;;;;;;;2.13;1.30;;;16.70;58.20;;;;;;5111614;28;20222;-67
2024/02/27 10:42:53;;;;;;;0.65;0.65;;;16.80;58.20;;;;;;5112626;28;20207;-68
2024/02/27 10:45:19;;;;;;;0.75;0.75;;;16.80;58.20;;;;;;5111796;28;20177;-67
2024/02/27 10:47:44;;;;;;;1.45;0.90;;;16.80;58.10;;;;;;5113389;28;20177;-66
2024/02/27 10:50:10;;;;;;;0.93;0.90;;;16.80;58.10;;;;;;5111231;28;20177;-67
2024/02/27 10:52:36;;;;;;;0.80;0.77;;;16.80;58.10;;;;;;5112265;28;20226;-67
2024/02/27 10:55:02;;;;;;;0.77;0.77;;;16.80;58.20;;;;;;5113259;28;20169;-68
2024/02/27 10:57:27;;;;;;;1.13;0.90;;;16.80;58.20;;;;;;5112191;28;20225;-69
2024/02/27 10:59:53;;;;;;;3.78;1.00;;;16.70;58.40;;;;;;5113046;28;20632;-67
2024/02/27 11:02:19;;;;;;;0.88;0.88;;;16.80;58.20;;;;;;5111464;28;20890;-68
2024/02/27 11:04:50;;;;;;;1.17;0.93;;;16.70;58.30;;;;;;5112152;28;20188;-67
2024/02/27 11:07:16;;;;;;;1.08;1.00;;;16.80;58.50;;;;;;5111432;28;20198;-67
2024/02/27 11:09:45;;;;;;;1.35;1.10;;;16.80;58.50;;;;;;5111646;28;20225;-67
2024/02/27 11:12:14;;;;;;;0.93;0.70;;;16.80;58.60;;;;;;5110917;28;20256;-67
2024/02/27 11:14:42;;;;;;;1.65;1.10;;;16.70;58.60;;;;;;5112688;28;20612;-68
2024/02/27 11:17:20;;;;;;;1.98;1.00;;;16.70;58.60;;;;;;5110886;28;20230;-68
2024/02/27 11:19:48;;;;;;;1.08;0.95;;;16.70;58.70;;;;;;5111629;28;20710;-67
2024/02/27 11:22:15;;;;;;;1.55;0.93;;;16.60;58.60;;;;;;5111055;28;20542;-68
2024/02/27 11:24:41;;;;;;;1.60;1.40;;;16.60;58.60;;;;;;5110738;28;20169;-66
2024/02/27 11:27:06;;;;;;;1.80;1.10;;;16.60;58.60;;;;;;5112597;28;20642;-66
2024/02/27 11:29:32;;;;;;;1.20;1.08;;;16.60;58.60;;;;;;5111187;28;20213;-66
2024/02/27 11:31:57;;;;;;;1.10;1.10;;;16.60;58.60;;;;;;5110682;28;20581;-66
2024/02/27 11:34:26;;;;;;;1.10;1.00;;;16.50;58.80;;;;;;5111098;28;20180;-68
2024/02/27 11:37:13;;;;;;;1.13;1.10;;;16.50;58.60;;;;;;5112236;28;20173;-70
2024/02/27 11:39:38;;;;;;;1.50;1.20;;;16.50;58.70;;;;;;5111777;28;20180;-68
2024/02/27 11:42:05;;;;;;;1.00;1.00;;;16.60;58.70;;;;;;5112659;28;20505;-71
2024/02/27 11:44:30;;;;;;;1.15;1.02;;;16.60;58.70;;;;;;5110924;28;20647;-69
2024/02/27 11:46:56;;;;;;;1.10;1.00;;;16.60;58.70;;;;;;5111633;28;20207;-68
2024/02/27 11:49:40;;;;;;;3.00;1.20;;;16.60;58.70;;;;;;5111928;28;20212;-69
2024/02/27 11:52:06;;;;;;;3.25;1.42;;;16.60;58.70;;;;;;5111373;28;20643;-68
2024/02/27 11:54:33;;;;;;;2.47;1.20;;;16.60;58.70;;;;;;5112130;28;20180;-67
2024/02/27 11:56:59;;;;;;;3.58;1.10;;;16.60;58.80;;;;;;5116363;28;20315;-66
2024/02/27 11:59:32;;;;;;;1.08;1.02;;;16.50;58.80;;;;;;5111667;28;20288;-67
2024/02/27 12:02:03;;;;;;;0.98;0.93;;;16.50;58.80;;;;;;5132863;27;20180;-67
2024/02/27 12:04:28;;;;;;;2.00;1.00;;;16.50;58.80;;;;;;5124826;27;20177;-66
2024/02/27 12:06:54;;;;;;;1.65;1.10;;;16.50;58.80;;;;;;5111674;28;20176;-66
2024/02/27 12:09:27;;;;;;;1.00;1.00;;;16.50;58.80;;;;;;5111955;28;20205;-66
2024/02/27 12:11:53;;;;;;;1.17;1.05;;;16.50;58.80;;;;;;5112436;28;20173;-67
2024/02/27 12:14:19;;;;;;;1.15;1.05;;;16.50;58.80;;;;;;5129535;28;20654;-67
2024/02/27 12:16:45;;;;;;;1.60;1.20;;;16.50;58.70;;;;;;5132416;27;20635;-67
2024/02/27 12:19:10;;;;;;;1.48;1.30;;;16.60;58.60;;;;;;5132133;28;20173;-67
2024/02/27 12:21:36;;;;;;;1.20;1.10;;;16.60;58.60;;;;;;5132107;27;20180;-67
2024/02/27 12:24:18;;;;;;;1.40;1.30;;;16.60;58.60;;;;;;5132630;27;20198;-67
2024/02/27 12:26:47;;;;;;;1.20;1.10;;;16.60;58.50;;;;;;5132907;27;20184;-67
2024/02/27 12:29:17;;;;;;;1.50;1.17;;;16.70;58.70;;;;;;5131225;27;20216;-67
2024/02/27 12:31:42;;;;;;;1.70;1.00;;;16.70;58.70;;;;;;5111565;28;20183;-66
2024/02/27 12:34:08;;;;;;;1.67;1.15;;;16.70;58.30;;;;;;5110606;28;20173;-67
2024/02/27 12:36:34;;;;;;;0.93;0.93;;;16.70;58.50;;;;;;5111075;28;20173;-68
2024/02/27 12:38:59;;;;;;;1.08;1.00;;;16.70;58.50;;;;;;5111813;28;20549;-66
2024/02/27 12:41:25;;;;;;;1.88;1.15;;;16.70;58.50;;;;;;5110875;28;20173;-66